sensor_id;sensor_type;location;lat;lon;timestamp;P1;durP1;ratioP1;P2;durP2;ratioP2
44824;SDS011;30542;47.928;2.138;2023-03-01T00:02:57;0.63;;;0.47;;
44824;SDS011;30542;47.928;2.138;2023-03-01T00:07:57;0.40;;;0.30;;
44824;SDS011;30542;47.928;2.138;2023-03-01T00:12:58;1.02;;;0.52;;
44824;SDS011;30542;47.928;2.138;2023-03-01T00:17:58;0.97;;;0.67;;
44824;SDS011;30542;47.928;2.138;2023-03-01T00:22:59;0.83;;;0.60;;
44824;SDS011;30542;47.928;2.138;2023-03-01T00:27:59;0.73;;;0.47;;
44824;SDS011;30542;47.928;2.138;2023-03-01T00:32:59;0.80;;;0.40;;
44824;SDS011;30542;47.928;2.138;2023-03-01T00:38:00;2.00;;;0.50;;
44824;SDS011;30542;47.928;2.138;2023-03-01T00:43:01;1.08;;;0.50;;
44824;SDS011;30542;47.928;2.138;2023-03-01T00:48:02;0.50;;;0.50;;
44824;SDS011;30542;47.928;2.138;2023-03-01T00:53:02;0.73;;;0.50;;
44824;SDS011;30542;47.928;2.138;2023-03-01T00:58:04;0.73;;;0.40;;
44824;SDS011;30542;47.928;2.138;2023-03-01T01:03:05;0.93;;;0.50;;
44824;SDS011;30542;47.928;2.138;2023-03-01T01:08:05;0.60;;;0.50;;
44824;SDS011;30542;47.928;2.138;2023-03-01T01:13:06;1.60;;;0.40;;
44824;SDS011;30542;47.928;2.138;2023-03-01T01:18:06;0.40;;;0.40;;
44824;SDS011;30542;47.928;2.138;2023-03-01T01:23:07;0.60;;;0.40;;
44824;SDS011;30542;47.928;2.138;2023-03-01T01:28:07;0.30;;;0.30;;
44824;SDS011;30542;47.928;2.138;2023-03-01T01:33:07;0.80;;;0.50;;
44824;SDS011;30542;47.928;2.138;2023-03-01T01:38:08;0.90;;;0.70;;
44824;SDS011;30542;47.928;2.138;2023-03-01T01:43:13;0.60;;;0.40;;
44824;SDS011;30542;47.928;2.138;2023-03-01T01:48:20;0.70;;;0.50;;
44824;SDS011;30542;47.928;2.138;2023-03-01T01:53:23;0.50;;;0.50;;
44824;SDS011;30542;47.928;2.138;2023-03-01T01:58:25;0.77;;;0.50;;
44824;SDS011;30542;47.928;2.138;2023-03-01T02:03:30;0.60;;;0.43;;
44824;SDS011;30542;47.928;2.138;2023-03-01T02:08:37;0.97;;;0.50;;
44824;SDS011;30542;47.928;2.138;2023-03-01T02:13:41;1.20;;;0.60;;
44824;SDS011;30542;47.928;2.138;2023-03-01T02:18:42;0.60;;;0.50;;
44824;SDS011;30542;47.928;2.138;2023-03-01T02:23:45;0.82;;;0.50;;
44824;SDS011;30542;47.928;2.138;2023-03-01T02:28:46;0.57;;;0.47;;
44824;SDS011;30542;47.928;2.138;2023-03-01T02:33:47;0.52;;;0.50;;
44824;SDS011;30542;47.928;2.138;2023-03-01T02:38:51;1.20;;;0.50;;
44824;SDS011;30542;47.928;2.138;2023-03-01T02:43:56;0.65;;;0.40;;
44824;SDS011;30542;47.928;2.138;2023-03-01T02:48:57;0.82;;;0.43;;
44824;SDS011;30542;47.928;2.138;2023-03-01T02:54:28;1.05;;;0.50;;
44824;SDS011;30542;47.928;2.138;2023-03-01T02:59:35;0.90;;;0.70;;
44824;SDS011;30542;47.928;2.138;2023-03-01T03:04:39;0.70;;;0.50;;
44824;SDS011;30542;47.928;2.138;2023-03-01T03:09:39;0.63;;;0.40;;
44824;SDS011;30542;47.928;2.138;2023-03-01T03:14:39;0.90;;;0.63;;
44824;SDS011;30542;47.928;2.138;2023-03-01T03:19:40;0.70;;;0.40;;
44824;SDS011;30542;47.928;2.138;2023-03-01T03:24:40;0.83;;;0.53;;
44824;SDS011;30542;47.928;2.138;2023-03-01T03:29:41;0.57;;;0.50;;
44824;SDS011;30542;47.928;2.138;2023-03-01T03:34:41;0.55;;;0.40;;
44824;SDS011;30542;47.928;2.138;2023-03-01T03:39:42;0.82;;;0.60;;
44824;SDS011;30542;47.928;2.138;2023-03-01T03:44:42;0.50;;;0.50;;
44824;SDS011;30542;47.928;2.138;2023-03-01T03:49:42;0.90;;;0.70;;
44824;SDS011;30542;47.928;2.138;2023-03-01T03:54:43;1.53;;;0.50;;
44824;SDS011;30542;47.928;2.138;2023-03-01T03:59:43;0.57;;;0.50;;
44824;SDS011;30542;47.928;2.138;2023-03-01T04:04:44;0.73;;;0.67;;
44824;SDS011;30542;47.928;2.138;2023-03-01T04:09:44;1.33;;;0.50;;
44824;SDS011;30542;47.928;2.138;2023-03-01T04:14:44;0.67;;;0.67;;
44824;SDS011;30542;47.928;2.138;2023-03-01T04:19:45;0.70;;;0.47;;
44824;SDS011;30542;47.928;2.138;2023-03-01T04:24:48;0.95;;;0.50;;
44824;SDS011;30542;47.928;2.138;2023-03-01T04:29:49;1.23;;;0.80;;
44824;SDS011;30542;47.928;2.138;2023-03-01T04:34:49;1.53;;;0.53;;
44824;SDS011;30542;47.928;2.138;2023-03-01T04:39:49;1.03;;;0.50;;
44824;SDS011;30542;47.928;2.138;2023-03-01T04:44:50;0.50;;;0.40;;
44824;SDS011;30542;47.928;2.138;2023-03-01T04:49:51;0.70;;;0.50;;
44824;SDS011;30542;47.928;2.138;2023-03-01T04:54:51;0.50;;;0.40;;
44824;SDS011;30542;47.928;2.138;2023-03-01T04:59:51;0.53;;;0.50;;
44824;SDS011;30542;47.928;2.138;2023-03-01T05:04:52;1.30;;;0.40;;
44824;SDS011;30542;47.928;2.138;2023-03-01T05:09:52;0.60;;;0.43;;
44824;SDS011;30542;47.928;2.138;2023-03-01T05:14:53;1.00;;;0.40;;
44824;SDS011;30542;47.928;2.138;2023-03-01T05:19:53;0.50;;;0.40;;
44824;SDS011;30542;47.928;2.138;2023-03-01T05:24:55;1.00;;;0.77;;
44824;SDS011;30542;47.928;2.138;2023-03-01T05:29:56;0.60;;;0.40;;
44824;SDS011;30542;47.928;2.138;2023-03-01T05:34:56;1.35;;;0.43;;
44824;SDS011;30542;47.928;2.138;2023-03-01T05:39:57;0.77;;;0.50;;
44824;SDS011;30542;47.928;2.138;2023-03-01T05:44:57;0.55;;;0.32;;
44824;SDS011;30542;47.928;2.138;2023-03-01T05:49:57;0.87;;;0.50;;
44824;SDS011;30542;47.928;2.138;2023-03-01T05:54:58;0.80;;;0.80;;
44824;SDS011;30542;47.928;2.138;2023-03-01T05:59:58;1.47;;;0.40;;
44824;SDS011;30542;47.928;2.138;2023-03-01T06:04:58;1.23;;;0.52;;
44824;SDS011;30542;47.928;2.138;2023-03-01T06:09:59;0.65;;;0.50;;
44824;SDS011;30542;47.928;2.138;2023-03-01T06:15:00;1.20;;;0.80;;
44824;SDS011;30542;47.928;2.138;2023-03-01T06:20:01;3.17;;;0.70;;
44824;SDS011;30542;47.928;2.138;2023-03-01T06:25:01;2.77;;;0.73;;
44824;SDS011;30542;47.928;2.138;2023-03-01T06:30:02;2.50;;;0.73;;
44824;SDS011;30542;47.928;2.138;2023-03-01T06:35:03;2.15;;;0.70;;
44824;SDS011;30542;47.928;2.138;2023-03-01T06:40:04;3.42;;;0.60;;
44824;SDS011;30542;47.928;2.138;2023-03-01T06:45:11;2.45;;;1.00;;
44824;SDS011;30542;47.928;2.138;2023-03-01T06:50:12;2.65;;;0.73;;
44824;SDS011;30542;47.928;2.138;2023-03-01T06:55:13;2.55;;;0.68;;
44824;SDS011;30542;47.928;2.138;2023-03-01T07:00:13;3.50;;;1.10;;
44824;SDS011;30542;47.928;2.138;2023-03-01T07:05:14;3.90;;;1.08;;
44824;SDS011;30542;47.928;2.138;2023-03-01T07:10:15;2.60;;;0.88;;
44824;SDS011;30542;47.928;2.138;2023-03-01T07:15:15;2.95;;;0.60;;
44824;SDS011;30542;47.928;2.138;2023-03-01T07:20:19;7.60;;;1.40;;
44824;SDS011;30542;47.928;2.138;2023-03-01T07:25:25;12.05;;;2.60;;
44824;SDS011;30542;47.928;2.138;2023-03-01T07:30:25;15.30;;;3.10;;
44824;SDS011;30542;47.928;2.138;2023-03-01T07:35:28;11.27;;;2.70;;
44824;SDS011;30542;47.928;2.138;2023-03-01T07:40:28;8.13;;;2.37;;
44824;SDS011;30542;47.928;2.138;2023-03-01T07:45:29;7.47;;;2.33;;
44824;SDS011;30542;47.928;2.138;2023-03-01T07:50:29;4.95;;;1.98;;
44824;SDS011;30542;47.928;2.138;2023-03-01T07:55:29;8.43;;;2.00;;
44824;SDS011;30542;47.928;2.138;2023-03-01T08:00:30;8.57;;;2.40;;
44824;SDS011;30542;47.928;2.138;2023-03-01T08:05:31;4.38;;;2.67;;
44824;SDS011;30542;47.928;2.138;2023-03-01T08:10:32;4.63;;;2.65;;
44824;SDS011;30542;47.928;2.138;2023-03-01T08:15:32;3.67;;;2.30;;
44824;SDS011;30542;47.928;2.138;2023-03-01T08:20:33;7.93;;;4.23;;
44824;SDS011;30542;47.928;2.138;2023-03-01T08:25:33;5.40;;;4.90;;
44824;SDS011;30542;47.928;2.138;2023-03-01T08:30:33;4.93;;;4.40;;
44824;SDS011;30542;47.928;2.138;2023-03-01T08:35:34;7.78;;;5.80;;
44824;SDS011;30542;47.928;2.138;2023-03-01T08:40:34;8.50;;;3.93;;
44824;SDS011;30542;47.928;2.138;2023-03-01T08:45:34;4.77;;;3.73;;
44824;SDS011;30542;47.928;2.138;2023-03-01T08:50:35;7.63;;;3.07;;
44824;SDS011;30542;47.928;2.138;2023-03-01T08:55:35;4.37;;;2.63;;
44824;SDS011;30542;47.928;2.138;2023-03-01T09:00:36;7.27;;;2.33;;
44824;SDS011;30542;47.928;2.138;2023-03-01T09:05:36;3.53;;;2.00;;
44824;SDS011;30542;47.928;2.138;2023-03-01T09:10:37;5.25;;;2.20;;
44824;SDS011;30542;47.928;2.138;2023-03-01T09:15:39;5.53;;;1.75;;
44824;SDS011;30542;47.928;2.138;2023-03-01T09:20:39;4.67;;;1.70;;
44824;SDS011;30542;47.928;2.138;2023-03-01T09:25:40;5.00;;;1.90;;
44824;SDS011;30542;47.928;2.138;2023-03-01T09:30:40;6.20;;;3.27;;
44824;SDS011;30542;47.928;2.138;2023-03-01T09:35:40;4.90;;;2.70;;
44824;SDS011;30542;47.928;2.138;2023-03-01T09:40:45;5.43;;;1.90;;
44824;SDS011;30542;47.928;2.138;2023-03-01T09:45:46;4.43;;;2.03;;
44824;SDS011;30542;47.928;2.138;2023-03-01T09:50:50;6.25;;;1.85;;
44824;SDS011;30542;47.928;2.138;2023-03-01T09:55:55;3.70;;;1.67;;
44824;SDS011;30542;47.928;2.138;2023-03-01T10:01:04;5.75;;;2.13;;
44824;SDS011;30542;47.928;2.138;2023-03-01T10:06:32;3.38;;;1.55;;
44824;SDS011;30542;47.928;2.138;2023-03-01T10:11:43;2.50;;;1.20;;
44824;SDS011;30542;47.928;2.138;2023-03-01T10:16:48;5.53;;;1.73;;
44824;SDS011;30542;47.928;2.138;2023-03-01T10:21:49;3.33;;;1.67;;
44824;SDS011;30542;47.928;2.138;2023-03-01T10:26:55;2.90;;;1.90;;
44824;SDS011;30542;47.928;2.138;2023-03-01T10:31:57;3.63;;;1.67;;
44824;SDS011;30542;47.928;2.138;2023-03-01T10:37:00;5.80;;;1.48;;
44824;SDS011;30542;47.928;2.138;2023-03-01T10:42:19;5.07;;;1.70;;
44824;SDS011;30542;47.928;2.138;2023-03-01T10:47:23;2.67;;;1.33;;
44824;SDS011;30542;47.928;2.138;2023-03-01T10:52:30;5.05;;;1.30;;
44824;SDS011;30542;47.928;2.138;2023-03-01T10:57:37;4.88;;;2.35;;
44824;SDS011;30542;47.928;2.138;2023-03-01T11:02:40;4.70;;;2.05;;
44824;SDS011;30542;47.928;2.138;2023-03-01T11:07:50;2.40;;;1.20;;
44824;SDS011;30542;47.928;2.138;2023-03-01T11:12:52;4.00;;;1.48;;
44824;SDS011;30542;47.928;2.138;2023-03-01T11:17:54;2.17;;;1.65;;
44824;SDS011;30542;47.928;2.138;2023-03-01T11:22:57;2.88;;;1.70;;
44824;SDS011;30542;47.928;2.138;2023-03-01T11:28:02;3.38;;;1.38;;
44824;SDS011;30542;47.928;2.138;2023-03-01T11:38:19;1.85;;;1.17;;
44824;SDS011;30542;47.928;2.138;2023-03-01T11:48:50;1.27;;;0.93;;
44824;SDS011;30542;47.928;2.138;2023-03-01T12:10:19;2.20;;;1.30;;
44824;SDS011;30542;47.928;2.138;2023-03-01T12:15:33;2.47;;;1.00;;
44824;SDS011;30542;47.928;2.138;2023-03-01T12:26:34;2.47;;;1.38;;
44824;SDS011;30542;47.928;2.138;2023-03-01T12:32:27;2.00;;;1.38;;
44824;SDS011;30542;47.928;2.138;2023-03-01T12:37:21;1.40;;;1.30;;
44824;SDS011;30542;47.928;2.138;2023-03-01T12:52:56;1.60;;;1.45;;
44824;SDS011;30542;47.928;2.138;2023-03-01T13:08:32;3.67;;;1.35;;
44824;SDS011;30542;47.928;2.138;2023-03-01T13:13:43;1.58;;;1.00;;
44824;SDS011;30542;47.928;2.138;2023-03-01T13:18:43;2.27;;;1.27;;
44824;SDS011;30542;47.928;2.138;2023-03-01T13:23:44;2.03;;;1.38;;
44824;SDS011;30542;47.928;2.138;2023-03-01T13:33:53;3.03;;;1.35;;
44824;SDS011;30542;47.928;2.138;2023-03-01T13:38:59;2.53;;;0.93;;
44824;SDS011;30542;47.928;2.138;2023-03-01T13:44:01;2.65;;;1.40;;
44824;SDS011;30542;47.928;2.138;2023-03-01T13:49:01;3.30;;;1.40;;
44824;SDS011;30542;47.928;2.138;2023-03-01T13:54:02;2.67;;;1.70;;
44824;SDS011;30542;47.928;2.138;2023-03-01T13:59:05;1.50;;;1.40;;
44824;SDS011;30542;47.928;2.138;2023-03-01T14:04:18;3.13;;;1.38;;
44824;SDS011;30542;47.928;2.138;2023-03-01T14:09:22;2.60;;;2.00;;
44824;SDS011;30542;47.928;2.138;2023-03-01T14:19:54;3.88;;;1.98;;
44824;SDS011;30542;47.928;2.138;2023-03-01T14:24:58;2.70;;;2.13;;
44824;SDS011;30542;47.928;2.138;2023-03-01T14:30:01;4.70;;;2.25;;
44824;SDS011;30542;47.928;2.138;2023-03-01T14:35:18;3.08;;;2.30;;
44824;SDS011;30542;47.928;2.138;2023-03-01T14:40:28;3.42;;;2.78;;
44824;SDS011;30542;47.928;2.138;2023-03-01T14:45:34;5.50;;;3.30;;
44824;SDS011;30542;47.928;2.138;2023-03-01T14:50:35;3.78;;;3.38;;
44824;SDS011;30542;47.928;2.138;2023-03-01T14:55:43;5.38;;;4.30;;
44824;SDS011;30542;47.928;2.138;2023-03-01T15:01:04;4.18;;;3.55;;
44824;SDS011;30542;47.928;2.138;2023-03-01T15:06:06;6.60;;;3.47;;
44824;SDS011;30542;47.928;2.138;2023-03-01T15:21:36;4.75;;;3.30;;
44824;SDS011;30542;47.928;2.138;2023-03-01T15:26:42;8.35;;;5.90;;
44824;SDS011;30542;47.928;2.138;2023-03-01T15:31:55;7.27;;;4.73;;
44824;SDS011;30542;47.928;2.138;2023-03-01T15:37:00;7.18;;;4.18;;
44824;SDS011;30542;47.928;2.138;2023-03-01T15:42:03;4.70;;;3.42;;
44824;SDS011;30542;47.928;2.138;2023-03-01T15:47:08;8.65;;;3.67;;
44824;SDS011;30542;47.928;2.138;2023-03-01T15:52:24;5.33;;;3.10;;
44824;SDS011;30542;47.928;2.138;2023-03-01T15:57:30;4.50;;;3.77;;
44824;SDS011;30542;47.928;2.138;2023-03-01T16:02:31;6.20;;;3.50;;
44824;SDS011;30542;47.928;2.138;2023-03-01T16:07:31;8.67;;;3.87;;
44824;SDS011;30542;47.928;2.138;2023-03-01T16:12:32;5.03;;;3.20;;
44824;SDS011;30542;47.928;2.138;2023-03-01T16:17:32;5.10;;;3.47;;
44824;SDS011;30542;47.928;2.138;2023-03-01T16:22:32;9.10;;;4.33;;
44824;SDS011;30542;47.928;2.138;2023-03-01T16:27:33;12.87;;;3.27;;
44824;SDS011;30542;47.928;2.138;2023-03-01T16:32:37;6.47;;;3.40;;
44824;SDS011;30542;47.928;2.138;2023-03-01T16:37:38;6.18;;;3.58;;
44824;SDS011;30542;47.928;2.138;2023-03-01T16:42:39;6.00;;;3.35;;
44824;SDS011;30542;47.928;2.138;2023-03-01T16:47:39;7.80;;;3.40;;
44824;SDS011;30542;47.928;2.138;2023-03-01T16:52:40;3.83;;;2.95;;
44824;SDS011;30542;47.928;2.138;2023-03-01T16:57:40;4.43;;;3.00;;
44824;SDS011;30542;47.928;2.138;2023-03-01T17:02:41;7.10;;;3.50;;
44824;SDS011;30542;47.928;2.138;2023-03-01T17:07:41;8.38;;;3.67;;
44824;SDS011;30542;47.928;2.138;2023-03-01T17:12:42;4.80;;;2.72;;
44824;SDS011;30542;47.928;2.138;2023-03-01T17:17:42;4.20;;;3.13;;
44824;SDS011;30542;47.928;2.138;2023-03-01T17:22:43;3.00;;;2.70;;
44824;SDS011;30542;47.928;2.138;2023-03-01T17:27:43;3.23;;;2.73;;
44824;SDS011;30542;47.928;2.138;2023-03-01T17:32:44;4.40;;;2.70;;
44824;SDS011;30542;47.928;2.138;2023-03-01T17:37:44;3.47;;;3.17;;
44824;SDS011;30542;47.928;2.138;2023-03-01T17:42:45;3.67;;;2.67;;
44824;SDS011;30542;47.928;2.138;2023-03-01T17:47:45;5.83;;;3.20;;
44824;SDS011;30542;47.928;2.138;2023-03-01T17:52:46;3.60;;;3.13;;
44824;SDS011;30542;47.928;2.138;2023-03-01T17:57:46;2.60;;;2.40;;
44824;SDS011;30542;47.928;2.138;2023-03-01T18:02:47;3.53;;;3.00;;
44824;SDS011;30542;47.928;2.138;2023-03-01T18:07:47;3.57;;;2.53;;
44824;SDS011;30542;47.928;2.138;2023-03-01T18:12:50;3.55;;;3.20;;
44824;SDS011;30542;47.928;2.138;2023-03-01T18:17:50;3.72;;;2.90;;
44824;SDS011;30542;47.928;2.138;2023-03-01T18:22:51;3.23;;;2.83;;
44824;SDS011;30542;47.928;2.138;2023-03-01T18:27:51;3.08;;;2.80;;
44824;SDS011;30542;47.928;2.138;2023-03-01T18:32:52;3.37;;;3.07;;
44824;SDS011;30542;47.928;2.138;2023-03-01T18:37:55;2.53;;;2.28;;
44824;SDS011;30542;47.928;2.138;2023-03-01T18:42:55;3.73;;;2.90;;
44824;SDS011;30542;47.928;2.138;2023-03-01T18:47:55;4.53;;;2.73;;
44824;SDS011;30542;47.928;2.138;2023-03-01T18:52:56;3.47;;;2.70;;
44824;SDS011;30542;47.928;2.138;2023-03-01T18:57:57;3.80;;;2.47;;
44824;SDS011;30542;47.928;2.138;2023-03-01T19:02:58;2.70;;;2.43;;
44824;SDS011;30542;47.928;2.138;2023-03-01T19:08:00;2.85;;;2.47;;
44824;SDS011;30542;47.928;2.138;2023-03-01T19:13:00;3.50;;;2.77;;
44824;SDS011;30542;47.928;2.138;2023-03-01T19:18:00;3.30;;;2.93;;
44824;SDS011;30542;47.928;2.138;2023-03-01T19:23:03;3.88;;;2.85;;
44824;SDS011;30542;47.928;2.138;2023-03-01T19:28:03;5.93;;;2.60;;
44824;SDS011;30542;47.928;2.138;2023-03-01T19:33:04;4.17;;;3.03;;
44824;SDS011;30542;47.928;2.138;2023-03-01T19:38:04;7.23;;;3.50;;
44824;SDS011;30542;47.928;2.138;2023-03-01T19:43:05;3.42;;;2.47;;
44824;SDS011;30542;47.928;2.138;2023-03-01T19:48:05;4.40;;;2.78;;
44824;SDS011;30542;47.928;2.138;2023-03-01T19:53:06;4.97;;;3.00;;
44824;SDS011;30542;47.928;2.138;2023-03-01T19:58:06;4.77;;;3.03;;
44824;SDS011;30542;47.928;2.138;2023-03-01T20:03:09;3.97;;;2.90;;
44824;SDS011;30542;47.928;2.138;2023-03-01T20:08:09;2.90;;;2.60;;
44824;SDS011;30542;47.928;2.138;2023-03-01T20:13:10;3.93;;;3.17;;
44824;SDS011;30542;47.928;2.138;2023-03-01T20:18:10;6.78;;;3.50;;
44824;SDS011;30542;47.928;2.138;2023-03-01T20:23:10;4.63;;;3.93;;
44824;SDS011;30542;47.928;2.138;2023-03-01T20:28:11;3.90;;;3.50;;
44824;SDS011;30542;47.928;2.138;2023-03-01T20:33:11;3.23;;;2.93;;
44824;SDS011;30542;47.928;2.138;2023-03-01T20:38:12;4.50;;;4.03;;
44824;SDS011;30542;47.928;2.138;2023-03-01T20:43:12;4.00;;;3.50;;
44824;SDS011;30542;47.928;2.138;2023-03-01T20:48:12;4.33;;;3.43;;
44824;SDS011;30542;47.928;2.138;2023-03-01T20:53:13;5.22;;;3.85;;
44824;SDS011;30542;47.928;2.138;2023-03-01T20:58:13;5.60;;;3.42;;
44824;SDS011;30542;47.928;2.138;2023-03-01T21:03:14;4.73;;;3.73;;
44824;SDS011;30542;47.928;2.138;2023-03-01T21:08:14;3.37;;;3.07;;
44824;SDS011;30542;47.928;2.138;2023-03-01T21:13:14;3.00;;;2.67;;
44824;SDS011;30542;47.928;2.138;2023-03-01T21:18:15;4.70;;;3.80;;
44824;SDS011;30542;47.928;2.138;2023-03-01T21:23:15;4.72;;;3.72;;
44824;SDS011;30542;47.928;2.138;2023-03-01T21:28:18;4.28;;;3.40;;
44824;SDS011;30542;47.928;2.138;2023-03-01T21:33:18;4.03;;;3.53;;
44824;SDS011;30542;47.928;2.138;2023-03-01T21:38:19;3.97;;;3.50;;
44824;SDS011;30542;47.928;2.138;2023-03-01T21:43:19;3.67;;;3.38;;
44824;SDS011;30542;47.928;2.138;2023-03-01T21:48:19;4.07;;;3.42;;
44824;SDS011;30542;47.928;2.138;2023-03-01T21:53:20;5.50;;;3.78;;
44824;SDS011;30542;47.928;2.138;2023-03-01T21:58:21;5.10;;;3.90;;
44824;SDS011;30542;47.928;2.138;2023-03-01T22:03:21;3.85;;;3.33;;
44824;SDS011;30542;47.928;2.138;2023-03-01T22:08:22;3.53;;;3.22;;
44824;SDS011;30542;47.928;2.138;2023-03-01T22:13:23;3.75;;;3.45;;
44824;SDS011;30542;47.928;2.138;2023-03-01T22:18:23;3.37;;;3.03;;
44824;SDS011;30542;47.928;2.138;2023-03-01T22:23:24;3.60;;;3.30;;
44824;SDS011;30542;47.928;2.138;2023-03-01T22:28:24;4.37;;;3.37;;
44824;SDS011;30542;47.928;2.138;2023-03-01T22:33:25;5.43;;;3.55;;
44824;SDS011;30542;47.928;2.138;2023-03-01T22:38:25;3.17;;;2.80;;
44824;SDS011;30542;47.928;2.138;2023-03-01T22:43:26;4.55;;;3.97;;
44824;SDS011;30542;47.928;2.138;2023-03-01T22:48:28;4.55;;;3.67;;
44824;SDS011;30542;47.928;2.138;2023-03-01T22:53:28;4.63;;;3.63;;
44824;SDS011;30542;47.928;2.138;2023-03-01T22:58:29;4.32;;;3.50;;
44824;SDS011;30542;47.928;2.138;2023-03-01T23:03:29;4.37;;;3.10;;
44824;SDS011;30542;47.928;2.138;2023-03-01T23:08:30;5.30;;;3.93;;
44824;SDS011;30542;47.928;2.138;2023-03-01T23:13:30;4.57;;;3.90;;
44824;SDS011;30542;47.928;2.138;2023-03-01T23:18:31;4.53;;;3.27;;
44824;SDS011;30542;47.928;2.138;2023-03-01T23:23:31;3.75;;;3.45;;
44824;SDS011;30542;47.928;2.138;2023-03-01T23:28:32;3.70;;;3.05;;
44824;SDS011;30542;47.928;2.138;2023-03-01T23:33:33;4.70;;;3.50;;
44824;SDS011;30542;47.928;2.138;2023-03-01T23:38:37;4.75;;;3.53;;
44824;SDS011;30542;47.928;2.138;2023-03-01T23:43:38;4.43;;;3.73;;
44824;SDS011;30542;47.928;2.138;2023-03-01T23:48:39;4.78;;;3.50;;
44824;SDS011;30542;47.928;2.138;2023-03-01T23:53:41;4.43;;;3.33;;
44824;SDS011;30542;47.928;2.138;2023-03-01T23:58:53;3.85;;;3.42;;
